createdAt,value
2024-05-09T00:00:37.891Z,8
2024-05-09T00:03:31.761Z,7.6
2024-05-09T00:06:31.719Z,8.3
2024-05-09T00:09:31.744Z,8.7
2024-05-09T00:12:31.750Z,7.4
2024-05-09T00:15:31.733Z,7.4
2024-05-09T00:18:31.835Z,7.9
2024-05-09T00:21:31.740Z,7.6
2024-05-09T00:24:31.751Z,9.6
2024-05-09T00:27:31.751Z,8.6
2024-05-09T00:30:34.105Z,8.2
2024-05-09T00:33:31.885Z,7.9
2024-05-09T00:36:31.770Z,7.7
2024-05-09T00:39:31.764Z,7.8
2024-05-09T00:42:31.771Z,8.8
2024-05-09T00:45:31.773Z,8.3
2024-05-09T00:48:31.915Z,7.2
2024-05-09T00:51:31.790Z,7.5
2024-05-09T00:54:31.791Z,7.4
2024-05-09T00:57:31.793Z,7.5
2024-05-09T01:00:35.579Z,8.1
2024-05-09T01:03:31.923Z,8.1
2024-05-09T01:06:31.802Z,8.3
2024-05-09T01:09:31.813Z,9
2024-05-09T01:12:31.880Z,8.4
2024-05-09T01:15:31.806Z,8.1
2024-05-09T01:18:31.903Z,7.5
2024-05-09T01:21:31.823Z,11.2
2024-05-09T01:24:31.814Z,9.5
2024-05-09T01:27:31.816Z,8.3
2024-05-09T01:30:34.247Z,8.2
2024-05-09T01:33:32.072Z,9.4
2024-05-09T01:36:31.827Z,8.6
2024-05-09T01:39:31.831Z,8.3
2024-05-09T01:42:31.837Z,8.2
2024-05-09T01:45:31.880Z,7.3
2024-05-09T01:48:31.874Z,8.5
2024-05-09T01:51:31.851Z,8.2
2024-05-09T01:54:31.850Z,7.3
2024-05-09T01:57:31.846Z,9.1
2024-05-09T02:00:36.782Z,9.2
2024-05-09T02:03:31.960Z,7.6
2024-05-09T02:06:31.861Z,8.6
2024-05-09T02:09:31.871Z,8.1
2024-05-09T02:12:31.941Z,9.2
2024-05-09T02:15:31.879Z,8.3
2024-05-09T02:18:31.937Z,8.4
2024-05-09T02:21:31.887Z,10.7
2024-05-09T02:24:31.900Z,9.6
2024-05-09T02:27:31.903Z,10.1
2024-05-09T02:30:37.611Z,9.6
2024-05-09T02:33:32.137Z,9.4
2024-05-09T02:36:31.948Z,8.8
2024-05-09T02:39:31.932Z,10.2
2024-05-09T02:42:31.947Z,9.1
2024-05-09T02:45:31.931Z,8.5
2024-05-09T02:48:31.987Z,9
2024-05-09T02:51:31.930Z,10.7
2024-05-09T02:54:31.935Z,11
2024-05-09T02:57:31.950Z,10.3
2024-05-09T03:00:36.584Z,9.2
2024-05-09T03:03:32.131Z,10.3
2024-05-09T03:06:31.949Z,11.3
2024-05-09T03:09:31.949Z,10.8
2024-05-09T03:12:31.995Z,9
2024-05-09T03:15:31.983Z,10.7
2024-05-09T03:18:32.037Z,9.8
2024-05-09T03:21:31.985Z,10.1
2024-05-09T03:24:31.992Z,8.8
2024-05-09T03:27:31.991Z,8.7
2024-05-09T03:30:36.570Z,8.3
2024-05-09T03:33:32.108Z,8.8
2024-05-09T03:36:31.995Z,8
2024-05-09T03:39:32.019Z,11.2
2024-05-09T03:42:32.007Z,8.9
2024-05-09T03:45:32.026Z,10.1
2024-05-09T03:48:32.095Z,9.5
2024-05-09T03:51:32.034Z,10.7
2024-05-09T03:54:32.044Z,9.6
2024-05-09T03:57:32.063Z,11
2024-05-09T04:00:35.741Z,9.9
2024-05-09T04:03:32.120Z,9.3
2024-05-09T04:06:32.051Z,9.8
2024-05-09T04:09:32.066Z,9.3
2024-05-09T04:12:32.163Z,10.4
2024-05-09T04:15:32.530Z,9.1
2024-05-09T04:18:32.147Z,9.8
2024-05-09T04:21:32.085Z,9.5
2024-05-09T04:24:32.100Z,8.9
2024-05-09T04:27:32.104Z,8.6
2024-05-09T04:30:36.309Z,9.4
2024-05-09T04:33:32.289Z,9.5
2024-05-09T04:36:32.125Z,8.8
2024-05-09T04:39:32.124Z,8.3
2024-05-09T04:42:32.116Z,9.6
2024-05-09T04:45:32.198Z,8.7
2024-05-09T04:48:32.182Z,9.5
2024-05-09T04:51:32.145Z,8.2
2024-05-09T04:54:35.779Z,9.5
2024-05-09T04:57:32.155Z,9.7
2024-05-09T05:00:35.414Z,9.2
2024-05-09T05:03:32.556Z,8.5
2024-05-09T05:06:32.156Z,7.2
2024-05-09T05:09:32.183Z,8
2024-05-09T05:12:32.288Z,8.2
2024-05-09T05:15:32.168Z,7.7
2024-05-09T05:18:32.296Z,7.9
2024-05-09T05:21:32.181Z,6.7
2024-05-09T05:24:32.198Z,6.9
2024-05-09T05:27:32.197Z,7.3
2024-05-09T05:30:34.339Z,6.6
2024-05-09T05:33:32.252Z,6.4
2024-05-09T05:36:32.216Z,6.4
2024-05-09T05:39:32.226Z,5.6
2024-05-09T05:42:32.241Z,6.7
2024-05-09T05:45:32.237Z,5.5
2024-05-09T05:48:32.278Z,6.2
2024-05-09T05:51:32.236Z,5.2
2024-05-09T05:54:32.234Z,5.5
2024-05-09T05:57:32.235Z,6
2024-05-09T06:00:37.544Z,4.3
2024-05-09T06:03:32.360Z,5
2024-05-09T06:06:32.235Z,5.4
2024-05-09T06:09:32.255Z,4.7
2024-05-09T06:12:32.305Z,4.7
2024-05-09T06:15:32.275Z,5.4
2024-05-09T06:18:32.448Z,5.5
2024-05-09T06:21:32.276Z,4.5
2024-05-09T06:24:32.277Z,4.9
2024-05-09T06:27:32.257Z,4.4
2024-05-09T06:30:36.717Z,5.7
2024-05-09T06:33:32.723Z,5.3
2024-05-09T06:36:32.294Z,5
2024-05-09T06:39:32.298Z,5.4
2024-05-09T06:42:32.300Z,4.5
2024-05-09T06:45:32.331Z,5.1
2024-05-09T06:48:32.399Z,4
2024-05-09T06:51:32.335Z,4.3
2024-05-09T06:54:32.335Z,4.4
2024-05-09T06:57:32.342Z,6.1
2024-05-09T07:00:37.708Z,3.7
2024-05-09T07:03:32.439Z,5.1
2024-05-09T07:06:32.356Z,4.2
2024-05-09T07:09:32.371Z,4.5
2024-05-09T07:12:32.477Z,5.4
2024-05-09T07:15:32.383Z,4.3
2024-05-09T07:18:32.472Z,6.4
2024-05-09T07:21:32.395Z,5.2
2024-05-09T07:24:32.387Z,4.9
2024-05-09T07:27:32.411Z,4.2
2024-05-09T07:30:33.842Z,5.2
2024-05-09T07:33:32.471Z,4.5
2024-05-09T07:36:32.413Z,4.4
2024-05-09T07:39:32.426Z,4.7
2024-05-09T07:42:32.417Z,4.9
2024-05-09T07:52:24.060Z,5.1
2024-05-09T07:54:32.613Z,4.1
2024-05-09T07:57:32.442Z,4.5
2024-05-09T08:00:32.476Z,4
2024-05-09T08:03:32.568Z,4.6
2024-05-09T08:06:32.445Z,5
2024-05-09T08:09:32.446Z,5.4
2024-05-09T08:12:32.497Z,4.3
2024-05-09T08:15:32.473Z,4.3
2024-05-09T08:18:32.687Z,3.7
2024-05-09T08:21:32.509Z,3.2
2024-05-09T08:24:32.493Z,3.4
2024-05-09T08:27:32.472Z,3.6
2024-05-09T08:30:35.998Z,4.4
2024-05-09T08:33:32.690Z,4.6
2024-05-09T08:36:32.464Z,3.5
2024-05-09T08:39:32.473Z,4.2
2024-05-09T08:42:32.479Z,5.2
2024-05-09T08:45:32.475Z,3.3
2024-05-09T08:48:32.656Z,3.9
2024-05-09T08:51:32.483Z,3.8
2024-05-09T08:54:32.521Z,3.9
2024-05-09T08:57:32.468Z,4
2024-05-09T09:00:36.080Z,4.4
2024-05-09T09:03:32.654Z,4
2024-05-09T09:06:32.496Z,3.2
2024-05-09T09:09:32.510Z,3.7
2024-05-09T09:12:32.521Z,5.1
2024-05-09T09:15:32.879Z,3.9
2024-05-09T09:18:32.681Z,5.5
2024-05-09T09:21:32.550Z,3.9
2024-05-09T09:24:32.506Z,3.9
2024-05-09T09:27:32.507Z,4.2
2024-05-09T09:30:36.118Z,4.7
2024-05-09T09:33:32.825Z,4.4
2024-05-09T09:36:32.534Z,3.4
2024-05-09T09:39:32.560Z,3.8
2024-05-09T09:42:32.522Z,4
2024-05-09T09:45:32.513Z,4
2024-05-09T09:48:32.576Z,4.6
2024-05-09T09:51:32.517Z,5
2024-05-09T09:54:32.518Z,4.3
2024-05-09T09:57:32.519Z,3.8
2024-05-09T10:00:33.272Z,3.6
2024-05-09T10:03:32.635Z,3.5
2024-05-09T10:06:32.507Z,3.8
2024-05-09T10:09:32.528Z,4
2024-05-09T10:12:32.579Z,3.2
2024-05-09T10:15:32.515Z,3.3
2024-05-09T10:18:34.086Z,3.7
2024-05-09T10:21:32.528Z,5
2024-05-09T10:24:32.509Z,3.3
2024-05-09T10:27:32.555Z,3.8
2024-05-09T10:30:35.541Z,3.3
2024-05-09T10:33:32.660Z,3.9
2024-05-09T10:36:32.542Z,4.1
2024-05-09T10:39:32.534Z,3.9
2024-05-09T10:42:32.548Z,3.2
2024-05-09T10:45:32.659Z,3.6
2024-05-09T10:48:32.618Z,4.5
2024-05-09T10:51:32.609Z,5
2024-05-09T10:54:32.617Z,3.3
2024-05-09T10:57:32.547Z,3.7
2024-05-09T11:00:35.490Z,3.8
2024-05-09T11:03:32.650Z,3.4
2024-05-09T11:06:32.577Z,3.7
2024-05-09T11:09:32.557Z,4.2
2024-05-09T11:12:32.550Z,3.6
2024-05-09T11:15:32.533Z,3.4
2024-05-09T11:18:34.986Z,4.9
2024-05-09T11:21:32.577Z,3.3
2024-05-09T11:24:32.575Z,4.2
2024-05-09T11:27:32.530Z,4.3
2024-05-09T11:30:32.794Z,3.3
2024-05-09T11:33:32.618Z,4.3
2024-05-09T11:36:32.555Z,3.9
2024-05-09T11:39:32.564Z,3.6
2024-05-09T11:42:32.586Z,3.3
2024-05-09T11:45:32.547Z,3.4
2024-05-09T11:48:32.848Z,3.7
2024-05-09T11:51:32.569Z,3.9
2024-05-09T11:54:32.581Z,2.9
2024-05-09T11:57:32.633Z,4.2
2024-05-09T12:00:36.146Z,3.4
2024-05-09T12:03:32.697Z,3.4
2024-05-09T12:06:32.578Z,3.2
2024-05-09T12:09:32.570Z,3.2
2024-05-09T12:12:34.238Z,4.2
2024-05-09T12:15:32.633Z,3.3
2024-05-09T12:18:32.578Z,3.8
2024-05-09T12:21:32.594Z,3.9
2024-05-09T12:24:32.583Z,6.5
2024-05-09T12:27:32.577Z,3.5
2024-05-09T12:30:36.061Z,3.5
2024-05-09T12:33:32.746Z,3.8
2024-05-09T12:36:32.571Z,3.1
2024-05-09T12:39:32.650Z,3
2024-05-09T12:42:33.693Z,3.5
2024-05-09T12:45:32.726Z,4.2
2024-05-09T12:48:32.734Z,3.5
2024-05-09T12:51:32.627Z,4
2024-05-09T12:54:32.618Z,3.9
2024-05-09T12:57:32.670Z,4
2024-05-09T13:00:33.995Z,3.4
2024-05-09T13:03:32.706Z,3.5
2024-05-09T13:06:32.640Z,2.8
2024-05-09T13:09:32.622Z,3.9
2024-05-09T13:12:32.608Z,4.2
2024-05-09T13:15:32.618Z,4.2
2024-05-09T13:18:32.663Z,3.4
2024-05-09T13:21:32.625Z,4.6
2024-05-09T13:24:32.660Z,3.1
2024-05-09T13:27:32.611Z,4.1
2024-05-09T13:30:38.576Z,3
2024-05-09T13:33:32.733Z,3.7
2024-05-09T13:36:32.655Z,4.5
2024-05-09T13:39:32.606Z,3
2024-05-09T13:42:32.611Z,3.1
2024-05-09T13:45:32.904Z,3.3
2024-05-09T13:48:32.703Z,2.9
2024-05-09T13:51:32.642Z,2.9
2024-05-09T13:54:32.629Z,4.3
2024-05-09T13:57:32.647Z,3.7
2024-05-09T14:00:41.202Z,3.5
2024-05-09T14:03:32.838Z,2.9
2024-05-09T14:06:32.675Z,3.4
2024-05-09T14:09:32.678Z,4.8
2024-05-09T14:12:32.669Z,4.5
2024-05-09T14:15:32.688Z,4
2024-05-09T14:18:32.718Z,3.2
2024-05-09T14:21:32.724Z,4
2024-05-09T14:24:32.626Z,3
2024-05-09T14:27:32.691Z,3.1
2024-05-09T14:30:36.184Z,2.6
2024-05-09T14:33:32.832Z,3.1
2024-05-09T14:36:32.692Z,4.1
2024-05-09T14:39:32.706Z,2.9
2024-05-09T14:42:32.789Z,2.8
2024-05-09T14:45:32.721Z,3.4
2024-05-09T14:48:32.809Z,3.3
2024-05-09T14:51:32.706Z,2.8
2024-05-09T14:54:32.730Z,2.7
2024-05-09T14:57:32.718Z,2.7
2024-05-09T15:00:35.330Z,2.7
2024-05-09T15:03:32.792Z,2.5
2024-05-09T15:06:32.700Z,3.4
2024-05-09T15:09:32.837Z,2.9
2024-05-09T15:12:32.670Z,2.4
2024-05-09T15:15:32.685Z,3.5
2024-05-09T15:18:32.775Z,3.4
2024-05-09T15:21:32.715Z,3.9
2024-05-09T15:24:32.703Z,4
2024-05-09T15:27:32.714Z,4.2
2024-05-09T15:30:33.609Z,3.9
2024-05-09T15:33:32.768Z,4.7
2024-05-09T15:36:32.717Z,4.2
2024-05-09T15:39:32.742Z,4.1
2024-05-09T15:42:32.710Z,2.9
2024-05-09T15:45:32.849Z,3.4
2024-05-09T15:48:32.807Z,4.6
2024-05-09T15:51:32.732Z,3.9
2024-05-09T15:54:32.745Z,3.1
2024-05-09T15:57:32.727Z,3.6
2024-05-09T16:00:36.807Z,4.4
2024-05-09T16:03:32.771Z,3.3
2024-05-09T16:06:32.729Z,3.5
2024-05-09T16:09:32.748Z,3.4
2024-05-09T16:12:32.735Z,2.9
2024-05-09T16:15:32.741Z,3.1
2024-05-09T16:18:32.739Z,4.5
2024-05-09T16:21:32.780Z,3.3
2024-05-09T16:24:32.764Z,2.9
2024-05-09T16:27:32.756Z,3.9
2024-05-09T16:30:34.627Z,3.4
2024-05-09T16:33:32.851Z,3.7
2024-05-09T16:36:32.793Z,3.7
2024-05-09T16:39:32.755Z,3.7
2024-05-09T16:42:32.772Z,3
2024-05-09T16:45:32.794Z,4.1
2024-05-09T16:48:32.940Z,3.2
2024-05-09T16:51:32.825Z,7.4
2024-05-09T16:54:32.802Z,3.4
2024-05-09T16:57:32.804Z,4.6
2024-05-09T17:00:38.076Z,5
2024-05-09T17:03:32.841Z,3
2024-05-09T17:06:32.886Z,2.7
2024-05-09T17:09:32.804Z,7.2
2024-05-09T17:12:32.794Z,3.3
2024-05-09T17:15:33.158Z,3.7
2024-05-09T17:18:32.870Z,4.3
2024-05-09T17:21:32.817Z,3
2024-05-09T17:24:32.830Z,5.1
2024-05-09T17:27:32.813Z,4.4
2024-05-09T17:30:35.457Z,3.2
2024-05-09T17:33:32.942Z,3.6
2024-05-09T17:36:32.932Z,3.3
2024-05-09T17:39:32.930Z,4.9
2024-05-09T17:42:32.841Z,3.2
2024-05-09T17:45:32.987Z,5.1
2024-05-09T17:48:32.956Z,3.1
2024-05-09T17:51:32.879Z,3.1
2024-05-09T17:54:32.843Z,3.7
2024-05-09T17:57:32.831Z,3.9
2024-05-09T18:00:36.663Z,3.8
2024-05-09T18:03:33.021Z,4.1
2024-05-09T18:06:32.824Z,5.7
2024-05-09T18:09:32.914Z,3.3
2024-05-09T18:12:32.847Z,3.8
2024-05-09T18:15:33.063Z,3.3
2024-05-09T18:18:32.920Z,3.6
2024-05-09T18:21:33.033Z,5.4
2024-05-09T18:24:32.862Z,3.1
2024-05-09T18:27:32.900Z,5.3
2024-05-09T18:30:34.353Z,3.5
2024-05-09T18:33:33.001Z,4.3
2024-05-09T18:36:32.896Z,3.5
2024-05-09T18:39:32.883Z,4.2
2024-05-09T18:42:32.889Z,4.2
2024-05-09T18:45:32.914Z,3.8
2024-05-09T18:48:32.976Z,4.7
2024-05-09T18:51:32.879Z,6.5
2024-05-09T18:54:33.926Z,3.3
2024-05-09T18:57:32.891Z,3.5
2024-05-09T19:00:35.124Z,4.9
2024-05-09T19:03:33.049Z,4.5
2024-05-09T19:06:32.961Z,4.3
2024-05-09T19:09:32.887Z,4
2024-05-09T19:12:32.937Z,4.7
2024-05-09T19:15:32.957Z,5.2
2024-05-09T19:18:33.014Z,4.5
2024-05-09T19:21:32.938Z,3.9
2024-05-09T19:24:32.915Z,7.9
2024-05-09T19:27:32.907Z,4.3
2024-05-09T19:30:37.212Z,3.6
2024-05-09T19:33:33.035Z,4.7
2024-05-09T19:36:32.949Z,6.8
2024-05-09T19:39:32.938Z,6.4
2024-05-09T19:42:32.962Z,4.2
2024-05-09T19:45:33.448Z,4.1
2024-05-09T19:48:33.040Z,5.4
2024-05-09T19:51:33.010Z,5.1
2024-05-09T19:54:33.004Z,5.8
2024-05-09T19:57:32.970Z,4.1
2024-05-09T20:00:35.561Z,4.1
2024-05-09T20:03:33.071Z,4
2024-05-09T20:06:33.005Z,5.3
2024-05-09T20:09:33.008Z,5.1
2024-05-09T20:12:33.007Z,4.3
2024-05-09T20:15:32.973Z,4.2
2024-05-09T20:18:33.117Z,4.5
2024-05-09T20:21:32.996Z,4.3
2024-05-09T20:24:32.999Z,4.3
2024-05-09T20:27:33.042Z,5.5
2024-05-09T20:30:33.715Z,4.9
2024-05-09T20:33:33.086Z,3.6
2024-05-09T20:36:33.012Z,4.4
2024-05-09T20:39:32.994Z,4.6
2024-05-09T20:42:33.021Z,6.2
2024-05-09T20:45:33.098Z,5.3
2024-05-09T20:48:33.153Z,4.7
2024-05-09T20:51:33.040Z,4.6
2024-05-09T20:54:33.042Z,3.6
2024-05-09T20:57:33.127Z,3.7
2024-05-09T21:00:37.644Z,4.9
2024-05-09T21:03:33.207Z,4.4
2024-05-09T21:06:33.185Z,4.8
2024-05-09T21:09:33.144Z,4.5
2024-05-09T21:12:33.207Z,4.1
2024-05-09T21:15:33.091Z,3.8
2024-05-09T21:18:33.267Z,4.3
2024-05-09T21:21:33.098Z,4.3
2024-05-09T21:24:33.135Z,5.1
2024-05-09T21:27:33.135Z,4
2024-05-09T21:30:38.820Z,4.5
2024-05-09T21:33:33.201Z,3.9
2024-05-09T21:36:33.148Z,3.9
2024-05-09T21:39:33.131Z,4.4
2024-05-09T21:42:33.168Z,4.7
2024-05-09T21:45:33.228Z,4.9
2024-05-09T21:48:33.237Z,4.3
2024-05-09T21:51:33.195Z,4.7
2024-05-09T21:54:33.174Z,4.9
2024-05-09T21:57:33.265Z,3.9
2024-05-09T22:00:36.275Z,5.3
2024-05-09T22:03:33.450Z,4.5
2024-05-09T22:06:33.244Z,4.9
2024-05-09T22:09:33.229Z,5.4
2024-05-09T22:12:33.258Z,5.7
2024-05-09T22:15:33.260Z,5.7
2024-05-09T22:18:33.385Z,5
2024-05-09T22:21:33.300Z,6.6
2024-05-09T22:24:33.264Z,5
2024-05-09T22:27:33.279Z,6.9
2024-05-09T22:30:35.595Z,6.8
2024-05-09T22:33:33.559Z,7.5
2024-05-09T22:36:33.340Z,5.1
2024-05-09T22:39:33.282Z,6.2
2024-05-09T22:42:33.315Z,5.1
2024-05-09T22:45:33.329Z,6
2024-05-09T22:48:33.391Z,5.6
2024-05-09T22:51:33.334Z,6
2024-05-09T22:54:33.322Z,5.1
2024-05-09T22:57:33.309Z,5.2
2024-05-09T23:00:33.655Z,6.4
2024-05-09T23:03:33.400Z,8.5
2024-05-09T23:06:33.319Z,6.2
2024-05-09T23:09:33.313Z,5.7
2024-05-09T23:12:33.312Z,5.8
2024-05-09T23:15:33.363Z,5.8
2024-05-09T23:18:33.334Z,5.8
2024-05-09T23:21:33.331Z,5.9
2024-05-09T23:24:33.308Z,6.7
2024-05-09T23:27:33.353Z,6.1
2024-05-09T23:30:36.462Z,5.8
2024-05-09T23:33:33.398Z,7.3
2024-05-09T23:36:33.350Z,6.7
2024-05-09T23:39:33.330Z,7.4
2024-05-09T23:42:33.343Z,7.5
2024-05-09T23:45:33.498Z,7.9
2024-05-09T23:48:33.394Z,6.9
2024-05-09T23:51:33.331Z,6.6
2024-05-09T23:54:33.328Z,5.9
2024-05-09T23:57:33.405Z,7.3
